createdAt,value
2018-06-17T00:00:15.718Z,15.8
2018-06-17T00:01:16.594Z,15.8
2018-06-17T00:02:16.479Z,15.8
2018-06-17T00:03:16.343Z,15.7
2018-06-17T00:04:16.217Z,15.7
2018-06-17T00:05:16.136Z,15.7
2018-06-17T00:06:16.651Z,15.5
2018-06-17T00:07:16.517Z,15.5
2018-06-17T00:08:16.600Z,15.5
2018-06-17T00:09:16.477Z,15.5
2018-06-17T00:10:16.379Z,15.5
2018-06-17T00:11:17.229Z,15.5
2018-06-17T00:12:18.110Z,15.6
2018-06-17T00:13:18.024Z,15.5
2018-06-17T00:14:17.904Z,15.5
2018-06-17T00:15:17.794Z,15.6
2018-06-17T00:16:18.761Z,15.6
2018-06-17T00:17:18.619Z,15.4
2018-06-17T00:18:21.333Z,15.4
2018-06-17T00:19:21.216Z,15.4
2018-06-17T00:20:21.107Z,15.4
2018-06-17T00:21:21.984Z,15.3
2018-06-17T00:22:21.868Z,15.3
2018-06-17T00:23:22.195Z,15.3
2018-06-17T00:24:22.093Z,15.3
2018-06-17T00:25:22.004Z,15.3
2018-06-17T00:26:22.296Z,15.2
2018-06-17T00:27:22.151Z,15.3
2018-06-17T00:28:25.238Z,15.3
2018-06-17T00:29:25.117Z,15.3
2018-06-17T00:30:26.059Z,15.2
2018-06-17T00:31:28.608Z,15.3
2018-06-17T00:32:28.472Z,15.3
2018-06-17T00:33:28.353Z,15.3
2018-06-17T00:34:29.225Z,15.3
2018-06-17T00:35:29.117Z,15.3
2018-06-17T00:36:29.396Z,15.3
2018-06-17T00:37:29.475Z,15.3
2018-06-17T00:38:29.342Z,15.2
2018-06-17T00:39:29.212Z,15.3
2018-06-17T00:40:30.119Z,15.3
2018-06-17T00:41:29.983Z,15.2
2018-06-17T00:42:30.059Z,15.3
2018-06-17T00:43:29.953Z,15.3
2018-06-17T00:44:29.828Z,15.3
2018-06-17T00:45:29.917Z,15.3
2018-06-17T00:46:30.202Z,15.2
2018-06-17T00:47:30.080Z,15.1
2018-06-17T00:48:31.008Z,15
2018-06-17T00:49:34.538Z,15
2018-06-17T00:50:34.694Z,15
2018-06-17T00:51:34.591Z,15
2018-06-17T00:52:38.479Z,15.1
2018-06-17T00:53:41.138Z,15.1
2018-06-17T00:54:43.795Z,15.2
2018-06-17T00:55:43.700Z,15.1
2018-06-17T00:56:47.013Z,15.2
2018-06-17T00:57:47.149Z,15.3
2018-06-17T00:58:47.040Z,15.3
2018-06-17T00:59:47.139Z,15.3
2018-06-17T01:00:47.047Z,15.2
2018-06-17T01:01:47.131Z,15.3
2018-06-17T01:02:47.032Z,15.3
2018-06-17T01:03:47.156Z,15.3
2018-06-17T01:04:47.031Z,15.3
2018-06-17T01:05:46.908Z,15.3
2018-06-17T01:06:52.892Z,15.3
2018-06-17T01:07:52.764Z,15.3
2018-06-17T01:08:55.368Z,15.4
2018-06-17T01:09:55.223Z,15.3
2018-06-17T01:10:55.117Z,15.2
2018-06-17T01:11:55.010Z,15.2
2018-06-17T01:12:57.864Z,15.2
2018-06-17T01:13:57.739Z,15.2
2018-06-17T01:15:00.183Z,15.2
2018-06-17T01:16:00.043Z,15.1
2018-06-17T01:17:03.336Z,15
2018-06-17T01:18:03.206Z,15
2018-06-17T01:19:03.080Z,15
2018-06-17T01:20:02.960Z,15
2018-06-17T01:21:05.445Z,14.9
2018-06-17T01:22:05.319Z,14.9
2018-06-17T01:23:05.197Z,14.9
2018-06-17T01:24:05.056Z,14.9
2018-06-17T01:25:06.148Z,14.9
2018-06-17T01:26:06.027Z,14.9
2018-06-17T01:27:10.147Z,14.8
2018-06-17T01:28:13.027Z,14.9
2018-06-17T01:29:13.135Z,14.9
2018-06-17T01:30:13.028Z,14.9
2018-06-17T01:31:12.905Z,15
2018-06-17T01:32:12.808Z,14.9
2018-06-17T01:33:12.919Z,14.9
2018-06-17T01:34:12.806Z,14.9
2018-06-17T01:35:15.537Z,14.9
2018-06-17T01:36:15.401Z,14.9
2018-06-17T01:37:16.604Z,14.9
2018-06-17T01:38:16.471Z,15
2018-06-17T01:39:16.331Z,15.1
2018-06-17T01:40:17.211Z,15.1
2018-06-17T01:41:17.143Z,15.1
2018-06-17T01:42:17.027Z,15.1
2018-06-17T01:43:17.333Z,15
2018-06-17T01:44:17.192Z,15
2018-06-17T01:45:17.066Z,14.9
2018-06-17T01:46:19.722Z,14.9
2018-06-17T01:47:20.214Z,14.9
2018-06-17T01:48:20.094Z,14.9
2018-06-17T01:49:19.976Z,14.9
2018-06-17T01:50:23.577Z,14.9
2018-06-17T01:51:23.445Z,14.9
2018-06-17T01:52:23.338Z,14.9
2018-06-17T01:53:23.479Z,14.9
2018-06-17T01:54:23.357Z,14.8
2018-06-17T01:55:23.264Z,14.8
2018-06-17T01:56:25.795Z,14.7
2018-06-17T01:57:26.082Z,14.8
2018-06-17T01:58:25.962Z,14.8
2018-06-17T01:59:25.817Z,14.7
2018-06-17T02:00:25.690Z,14.8
2018-06-17T02:01:26.777Z,14.8
2018-06-17T02:02:26.646Z,14.8
2018-06-17T02:03:26.532Z,14.7
2018-06-17T02:04:26.434Z,14.7
2018-06-17T02:05:26.326Z,14.6
2018-06-17T02:06:26.420Z,14.6
2018-06-17T02:07:29.835Z,14.6
2018-06-17T02:08:29.695Z,14.6
2018-06-17T02:09:35.311Z,14.6
2018-06-17T02:10:35.408Z,14.6
2018-06-17T02:11:36.289Z,14.5
2018-06-17T02:12:37.403Z,14.5
2018-06-17T02:13:37.278Z,14.4
2018-06-17T02:14:37.145Z,14.5
2018-06-17T02:15:38.016Z,14.5
2018-06-17T02:16:37.908Z,14.4
2018-06-17T02:17:41.196Z,14.3
2018-06-17T02:18:41.063Z,14.3
2018-06-17T02:19:43.961Z,14.4
2018-06-17T02:20:43.840Z,14.4
2018-06-17T02:21:43.703Z,14.4
2018-06-17T02:22:43.580Z,14.3
2018-06-17T02:23:43.450Z,14.3
2018-06-17T02:24:46.926Z,14.4
2018-06-17T02:25:46.783Z,14.5
2018-06-17T02:26:46.876Z,14.6
2018-06-17T02:27:47.171Z,14.6
2018-06-17T02:28:49.629Z,14.6
2018-06-17T02:29:49.506Z,14.6
2018-06-17T02:30:49.627Z,14.6
2018-06-17T02:31:49.498Z,14.6
2018-06-17T02:32:49.625Z,14.5
2018-06-17T02:33:49.500Z,14.5
2018-06-17T02:34:49.368Z,14.6
2018-06-17T02:35:50.240Z,14.6
2018-06-17T02:36:50.186Z,14.7
2018-06-17T02:37:50.481Z,14.7
2018-06-17T02:38:50.601Z,14.6
2018-06-17T02:39:53.256Z,14.6
2018-06-17T02:40:53.147Z,14.6
2018-06-17T02:41:53.016Z,14.6
2018-06-17T02:42:52.937Z,14.5
2018-06-17T02:43:52.818Z,14.5
2018-06-17T02:44:52.704Z,14.5
2018-06-17T02:45:53.256Z,14.4
2018-06-17T02:46:53.135Z,14.4
2018-06-17T02:47:54.496Z,14.4
2018-06-17T02:48:54.393Z,14.4
2018-06-17T02:49:57.880Z,14.3
2018-06-17T02:51:00.596Z,14.4
2018-06-17T02:52:00.477Z,14.4
2018-06-17T02:53:00.362Z,14.4
2018-06-17T02:54:00.492Z,14.5
2018-06-17T02:55:00.416Z,14.5
2018-06-17T02:56:00.532Z,14.5
2018-06-17T02:57:00.401Z,14.5
2018-06-17T02:58:03.690Z,14.5
2018-06-17T02:59:03.575Z,14.6
2018-06-17T03:00:03.463Z,14.6
2018-06-17T03:01:03.366Z,14.6
2018-06-17T03:02:03.272Z,14.6
2018-06-17T03:03:05.735Z,14.5
2018-06-17T03:04:05.661Z,14.5
2018-06-17T03:05:05.557Z,14.5
2018-06-17T03:06:05.472Z,14.6
2018-06-17T03:07:05.616Z,14.5
2018-06-17T03:08:05.966Z,14.6
2018-06-17T03:09:06.870Z,14.6
2018-06-17T03:10:06.984Z,14.6
2018-06-17T03:11:09.603Z,14.6
2018-06-17T03:12:09.701Z,14.6
2018-06-17T03:13:18.245Z,14.7
2018-06-17T03:14:18.129Z,14.7
2018-06-17T03:15:19.037Z,14.7
2018-06-17T03:16:18.976Z,14.6
2018-06-17T03:17:19.116Z,14.6
2018-06-17T03:18:19.636Z,14.6
2018-06-17T03:19:20.550Z,14.6
2018-06-17T03:20:20.430Z,14.5
2018-06-17T03:21:20.574Z,14.6
2018-06-17T03:22:20.446Z,14.5
2018-06-17T03:23:20.317Z,14.4
2018-06-17T03:24:21.218Z,14.4
2018-06-17T03:25:21.099Z,14.4
2018-06-17T03:26:20.983Z,14.4
2018-06-17T03:27:20.898Z,14.4
2018-06-17T03:28:22.445Z,14.3
2018-06-17T03:29:22.395Z,14.3
2018-06-17T03:30:22.306Z,14.4
2018-06-17T03:31:22.196Z,14.3
2018-06-17T03:32:22.082Z,14.4
2018-06-17T03:33:21.981Z,14.4
2018-06-17T03:34:23.325Z,14.4
2018-06-17T03:35:23.191Z,14.4
2018-06-17T03:36:23.071Z,14.4
2018-06-17T03:37:22.984Z,14.4
2018-06-17T03:38:24.460Z,14.3
2018-06-17T03:39:24.345Z,14.3
2018-06-17T03:40:24.235Z,14.3
2018-06-17T03:41:25.135Z,14.3
2018-06-17T03:42:26.074Z,14.2
2018-06-17T03:43:25.953Z,14.3
2018-06-17T03:44:28.756Z,14.3
2018-06-17T03:45:28.638Z,14.4
2018-06-17T03:46:28.516Z,14.4
2018-06-17T03:47:30.679Z,14.4
2018-06-17T03:48:30.966Z,14.5
2018-06-17T03:49:30.853Z,14.5
2018-06-17T03:50:30.771Z,14.5
2018-06-17T03:51:30.655Z,14.6
2018-06-17T03:52:30.734Z,14.6
2018-06-17T03:53:36.292Z,14.6
2018-06-17T03:54:37.178Z,14.5
2018-06-17T03:55:37.307Z,14.5
2018-06-17T03:56:43.202Z,14.4
2018-06-17T03:57:43.064Z,14.5
2018-06-17T03:58:46.471Z,14.4
2018-06-17T03:59:46.358Z,14.4
2018-06-17T04:00:46.472Z,14.5
2018-06-17T04:01:46.353Z,14.4
2018-06-17T04:02:46.233Z,14.5
2018-06-17T04:03:46.109Z,14.5
2018-06-17T04:04:45.990Z,14.5
2018-06-17T04:05:46.665Z,14.4
2018-06-17T04:06:49.995Z,14.4
2018-06-17T04:07:49.882Z,14.4
2018-06-17T04:08:50.388Z,14.5
2018-06-17T04:09:50.247Z,14.5
2018-06-17T04:10:50.149Z,14.5
2018-06-17T04:11:51.007Z,14.5
2018-06-17T04:12:50.890Z,14.4
2018-06-17T04:13:53.481Z,14.4
2018-06-17T04:14:53.570Z,14.4
2018-06-17T04:15:53.582Z,14.3
2018-06-17T04:16:53.615Z,14.3
2018-06-17T04:17:53.488Z,14.3
2018-06-17T04:18:53.803Z,14.3
2018-06-17T04:19:53.877Z,14.3
2018-06-17T04:20:56.610Z,14.4
2018-06-17T04:21:56.474Z,14.3
2018-06-17T04:22:56.580Z,14.3
2018-06-17T04:23:56.454Z,14.3
2018-06-17T04:24:56.320Z,14.4
2018-06-17T04:25:56.203Z,14.4
2018-06-17T04:26:56.302Z,14.4
2018-06-17T04:27:56.185Z,14.4
2018-06-17T04:28:56.483Z,14.4
2018-06-17T04:29:59.361Z,14.5
2018-06-17T04:30:59.250Z,14.5
2018-06-17T04:31:59.147Z,14.5
2018-06-17T04:32:59.027Z,14.5
2018-06-17T04:33:58.888Z,14.5
2018-06-17T04:34:58.759Z,14.5
2018-06-17T04:36:01.469Z,14.5
2018-06-17T04:37:01.357Z,14.4
2018-06-17T04:38:01.231Z,14.5
2018-06-17T04:39:03.990Z,14.4
2018-06-17T04:40:03.861Z,14.5
2018-06-17T04:41:03.743Z,14.4
2018-06-17T04:42:03.888Z,14.5
2018-06-17T04:43:03.971Z,14.5
2018-06-17T04:44:04.838Z,14.5
2018-06-17T04:45:04.711Z,14.6
2018-06-17T04:46:04.597Z,14.5
2018-06-17T04:47:05.520Z,14.5
2018-06-17T04:48:05.368Z,14.5
2018-06-17T04:49:06.643Z,14.5
2018-06-17T04:50:06.750Z,14.4
2018-06-17T04:51:06.618Z,14.4
2018-06-17T04:52:06.515Z,14.5
2018-06-17T04:53:06.387Z,14.5
2018-06-17T04:54:09.135Z,14.6
2018-06-17T04:55:09.013Z,14.6
2018-06-17T04:56:08.885Z,14.7
2018-06-17T04:57:09.004Z,14.7
2018-06-17T04:58:09.876Z,14.8
2018-06-17T04:59:11.161Z,14.8
2018-06-17T05:00:11.050Z,14.8
2018-06-17T05:01:10.919Z,14.8
2018-06-17T05:02:13.650Z,14.9
2018-06-17T05:03:13.532Z,14.9
2018-06-17T05:04:13.414Z,14.8
2018-06-17T05:05:17.200Z,14.8
2018-06-17T05:06:19.977Z,14.9
2018-06-17T05:07:19.858Z,14.8
2018-06-17T05:08:19.964Z,14.9
2018-06-17T05:09:20.264Z,14.9
2018-06-17T05:10:20.369Z,15
2018-06-17T05:11:20.219Z,15
2018-06-17T05:12:23.485Z,15
2018-06-17T05:13:23.356Z,15
2018-06-17T05:14:23.307Z,15
2018-06-17T05:15:23.624Z,15
2018-06-17T05:16:23.522Z,15
2018-06-17T05:17:23.384Z,15
2018-06-17T05:18:23.503Z,15
2018-06-17T05:19:25.791Z,15
2018-06-17T05:20:25.678Z,15
2018-06-17T05:21:25.576Z,15
2018-06-17T05:22:25.456Z,15
2018-06-17T05:23:35.133Z,15
2018-06-17T05:24:35.011Z,15.1
2018-06-17T05:25:34.872Z,15.1
2018-06-17T05:26:34.764Z,15.1
2018-06-17T05:27:37.385Z,15.1
2018-06-17T05:28:37.511Z,15.1
2018-06-17T05:29:37.780Z,15.1
2018-06-17T05:30:38.650Z,15.2
2018-06-17T05:31:38.539Z,15.2
2018-06-17T05:32:39.417Z,15.2
2018-06-17T05:33:39.307Z,15.2
2018-06-17T05:34:43.058Z,15.2
2018-06-17T05:35:42.927Z,15.3
2018-06-17T05:36:42.792Z,15.3
2018-06-17T05:37:42.934Z,15.3
2018-06-17T05:38:42.841Z,15.3
2018-06-17T05:39:43.316Z,15.3
2018-06-17T05:40:43.193Z,15.3
2018-06-17T05:41:43.073Z,15.3
2018-06-17T05:42:49.269Z,15.4
2018-06-17T05:43:49.147Z,15.4
2018-06-17T05:44:51.850Z,15.4
2018-06-17T05:45:51.954Z,15.5
2018-06-17T05:46:51.817Z,15.4
2018-06-17T05:47:51.714Z,15.5
2018-06-17T05:48:54.474Z,15.5
2018-06-17T05:49:54.782Z,15.6
2018-06-17T05:50:54.850Z,15.5
2018-06-17T05:51:54.724Z,15.5
2018-06-17T05:52:54.599Z,15.5
2018-06-17T05:53:54.510Z,15.6
2018-06-17T05:54:57.300Z,15.6
2018-06-17T05:55:57.183Z,15.7
2018-06-17T05:56:57.088Z,15.8
2018-06-17T05:57:56.972Z,15.8
2018-06-17T05:58:56.847Z,15.9
2018-06-17T06:00:00.164Z,15.9
2018-06-17T06:01:00.111Z,16
2018-06-17T06:01:59.998Z,16
2018-06-17T06:02:59.899Z,16
2018-06-17T06:04:02.843Z,16
2018-06-17T06:05:08.555Z,16.1
2018-06-17T06:06:08.450Z,16
2018-06-17T06:07:08.337Z,16
2018-06-17T06:08:09.424Z,16.1
2018-06-17T06:09:09.317Z,16.1
2018-06-17T06:10:13.245Z,16.1
2018-06-17T06:11:13.772Z,16.2
2018-06-17T06:12:13.662Z,16.2
2018-06-17T06:13:13.535Z,16.3
2018-06-17T06:14:13.440Z,16.3
2018-06-17T06:15:13.332Z,16.4
2018-06-17T06:16:13.445Z,16.4
2018-06-17T06:17:15.964Z,16.5
2018-06-17T06:18:15.911Z,16.6
2018-06-17T06:19:15.915Z,16.7
2018-06-17T06:20:16.732Z,16.9
2018-06-17T06:21:20.710Z,17
2018-06-17T06:22:20.585Z,17.2
2018-06-17T06:23:23.744Z,17.5
2018-06-17T06:24:23.639Z,17.7
2018-06-17T06:25:26.122Z,18.1
2018-06-17T06:26:26.231Z,18.4
2018-06-17T06:27:26.241Z,18.5
2018-06-17T06:28:26.398Z,18.7
2018-06-17T06:29:26.354Z,18.9
2018-06-17T06:30:29.598Z,19
2018-06-17T06:31:32.113Z,19.1
2018-06-17T06:32:32.214Z,19.4
2018-06-17T06:33:32.099Z,19.5
2018-06-17T06:34:33.022Z,19.8
2018-06-17T06:35:32.899Z,20
2018-06-17T06:36:33.769Z,20.2
2018-06-17T06:37:33.887Z,20.4
2018-06-17T06:38:33.977Z,20.1
2018-06-17T06:39:33.871Z,19.9
2018-06-17T06:40:38.105Z,19.8
2018-06-17T06:41:38.047Z,19.8
2018-06-17T06:42:44.319Z,19.8
2018-06-17T06:43:44.194Z,19.9
2018-06-17T06:44:44.138Z,19.8
2018-06-17T06:45:45.054Z,19.9
2018-06-17T06:46:44.964Z,19.8
2018-06-17T06:47:45.890Z,19.8
2018-06-17T06:48:45.768Z,19.8
2018-06-17T06:49:54.507Z,19.8
2018-06-17T06:50:56.236Z,19.6
2018-06-17T06:51:56.674Z,19.5
2018-06-17T06:52:58.670Z,19.5
2018-06-17T06:53:58.547Z,19.5
2018-06-17T06:55:01.471Z,19.5
2018-06-17T06:56:01.593Z,19.5
2018-06-17T06:57:01.481Z,19.6
2018-06-17T06:58:01.351Z,19.5
2018-06-17T06:59:02.246Z,19.5
2018-06-17T07:00:02.880Z,19.4
2018-06-17T07:01:03.180Z,19.4
2018-06-17T07:02:05.817Z,19.4
2018-06-17T07:03:05.706Z,19.4
2018-06-17T07:04:05.845Z,19.4
2018-06-17T07:05:05.740Z,19.4
2018-06-17T07:06:05.624Z,19.5
2018-06-17T07:07:05.499Z,19.4
2018-06-17T07:08:05.586Z,19.4
2018-06-17T07:09:05.464Z,19.4
2018-06-17T07:10:08.094Z,19.4
2018-06-17T07:11:11.389Z,19.4
2018-06-17T07:12:11.486Z,19.3
2018-06-17T07:13:11.374Z,19.3
2018-06-17T07:14:12.256Z,19.4
2018-06-17T07:15:18.871Z,19.4
2018-06-17T07:16:18.750Z,19.3
2018-06-17T07:17:19.828Z,19.4
2018-06-17T07:18:19.687Z,19.4
2018-06-17T07:19:25.409Z,19.4
2018-06-17T07:20:25.333Z,19.4
2018-06-17T07:21:25.641Z,19.4
2018-06-17T07:22:26.529Z,19.5
2018-06-17T07:23:26.434Z,19.7
2018-06-17T07:24:26.578Z,19.7
2018-06-17T07:25:26.467Z,19.9
2018-06-17T07:26:27.338Z,20
2018-06-17T07:27:28.233Z,19.9
2018-06-17T07:28:31.106Z,19.8
2018-06-17T07:29:32.018Z,19.9
2018-06-17T07:30:34.729Z,19.9
2018-06-17T07:31:35.081Z,19.9
2018-06-17T07:32:35.268Z,19.8
2018-06-17T07:33:35.295Z,19.8
2018-06-17T07:34:35.399Z,19.8
2018-06-17T07:35:35.303Z,19.8
2018-06-17T07:36:35.202Z,19.9
2018-06-17T07:37:36.069Z,19.9
2018-06-17T07:38:35.938Z,19.9
2018-06-17T07:39:35.835Z,19.9
2018-06-17T07:40:35.762Z,19.8
2018-06-17T07:41:36.324Z,19.8
2018-06-17T07:42:39.404Z,19.8
2018-06-17T07:43:39.285Z,19.8
2018-06-17T07:44:39.141Z,19.8
2018-06-17T07:45:39.257Z,19.8
2018-06-17T07:46:39.137Z,19.9
2018-06-17T07:47:42.701Z,20.1
2018-06-17T07:48:42.623Z,20.3
2018-06-17T07:49:43.501Z,20.5
2018-06-17T07:50:43.680Z,20.8
2018-06-17T07:51:43.961Z,20.9
2018-06-17T07:52:43.884Z,21.1
2018-06-17T07:53:43.766Z,21.3
2018-06-17T07:54:43.646Z,21.4
2018-06-17T07:55:49.341Z,21.5
2018-06-17T07:56:53.198Z,21.8
2018-06-17T07:57:53.077Z,21.9
2018-06-17T07:58:52.962Z,21.9
2018-06-17T07:59:56.577Z,21.9
2018-06-17T08:00:56.497Z,22.1
2018-06-17T08:01:57.475Z,22.1
2018-06-17T08:02:57.376Z,22.2
2018-06-17T08:04:00.984Z,22.3
2018-06-17T08:05:00.871Z,22.4
2018-06-17T08:06:03.688Z,22.3
2018-06-17T08:07:03.637Z,22.3
2018-06-17T08:08:07.398Z,22.2
2018-06-17T08:09:07.307Z,22.2
2018-06-17T08:10:08.184Z,22.2
2018-06-17T08:11:08.393Z,22.3
2018-06-17T08:12:08.927Z,22.2
2018-06-17T08:13:08.799Z,22.3
2018-06-17T08:14:11.255Z,22.4
2018-06-17T08:15:11.157Z,22.3
2018-06-17T08:16:11.099Z,22.4
2018-06-17T08:17:10.975Z,22.5
2018-06-17T08:18:14.796Z,22.5
2018-06-17T08:19:14.668Z,22.6
2018-06-17T08:20:14.753Z,22.6
2018-06-17T08:21:14.871Z,22.6
2018-06-17T08:22:15.411Z,22.5
2018-06-17T08:23:18.921Z,22.5
2018-06-17T08:24:21.816Z,22.5
2018-06-17T08:25:21.916Z,22.5
2018-06-17T08:26:21.823Z,22.4
2018-06-17T08:27:21.964Z,22.3
2018-06-17T08:28:25.518Z,22.3
2018-06-17T08:29:27.956Z,22.4
2018-06-17T08:30:30.646Z,22.3
2018-06-17T08:31:34.541Z,22.4
2018-06-17T08:32:37.626Z,22.4
2018-06-17T08:33:37.491Z,22.4
2018-06-17T08:34:37.398Z,22.4
2018-06-17T08:35:37.261Z,22.5
2018-06-17T08:36:39.853Z,22.6
2018-06-17T08:37:39.728Z,22.5
2018-06-17T08:38:39.629Z,22.5
2018-06-17T08:39:39.501Z,22.5
2018-06-17T08:40:42.430Z,22.6
2018-06-17T08:41:42.410Z,22.6
2018-06-17T08:42:47.382Z,22.7
2018-06-17T08:43:47.256Z,22.7
2018-06-17T08:44:48.633Z,22.7
2018-06-17T08:45:49.242Z,22.9
2018-06-17T08:46:49.277Z,23
2018-06-17T08:47:49.709Z,23.1
2018-06-17T08:48:49.576Z,23.1
2018-06-17T08:49:50.447Z,23.3
2018-06-17T08:50:51.343Z,23.3
2018-06-17T08:51:51.230Z,23.3
2018-06-17T08:52:52.744Z,23.3
2018-06-17T08:53:52.650Z,23.2
2018-06-17T08:54:53.533Z,23
2018-06-17T08:55:54.419Z,23
2018-06-17T08:56:54.311Z,22.9
2018-06-17T08:57:54.624Z,22.9
2018-06-17T08:58:54.498Z,23
2018-06-17T08:59:54.398Z,23.1
2018-06-17T09:00:54.253Z,23.2
2018-06-17T09:01:54.357Z,23.2
2018-06-17T09:02:54.727Z,23.3
2018-06-17T09:03:54.602Z,23.3
2018-06-17T09:04:54.479Z,23.2
2018-06-17T09:05:54.568Z,23.3
2018-06-17T09:06:54.677Z,23.4
2018-06-17T09:07:54.808Z,23.5
2018-06-17T09:08:54.700Z,23.5
2018-06-17T09:09:54.574Z,23.6
2018-06-17T09:10:54.667Z,23.5
2018-06-17T09:11:54.540Z,23.5
2018-06-17T09:12:55.137Z,23.5
2018-06-17T09:13:55.035Z,23.4
2018-06-17T09:14:54.911Z,23.2
2018-06-17T09:15:54.789Z,23.2
2018-06-17T09:16:55.706Z,23.2
2018-06-17T09:17:55.578Z,23.2
2018-06-17T09:18:56.112Z,23.2
2018-06-17T09:19:56.224Z,23.1
2018-06-17T09:20:56.268Z,23.1
2018-06-17T09:21:56.487Z,23.2
2018-06-17T09:22:59.559Z,23.2
2018-06-17T09:24:03.453Z,23.1
2018-06-17T09:25:03.347Z,23
2018-06-17T09:26:04.876Z,23
2018-06-17T09:27:04.783Z,23.1
2018-06-17T09:28:04.667Z,23
2018-06-17T09:29:04.584Z,22.9
2018-06-17T09:30:04.453Z,23
2018-06-17T09:31:04.346Z,23
2018-06-17T09:32:04.559Z,23.1
2018-06-17T09:33:05.642Z,23.2
2018-06-17T09:34:05.549Z,23.2
2018-06-17T09:35:05.439Z,23.3
2018-06-17T09:36:05.979Z,23.4
2018-06-17T09:37:08.656Z,23.4
2018-06-17T09:38:08.541Z,23.3
2018-06-17T09:39:08.456Z,23.3
2018-06-17T09:40:08.352Z,23.1
2018-06-17T09:41:08.226Z,23
2018-06-17T09:42:10.869Z,23
2018-06-17T09:43:14.850Z,23.2
2018-06-17T09:44:14.850Z,23.1
2018-06-17T09:45:14.880Z,23.1
2018-06-17T09:46:14.752Z,23.1
2018-06-17T09:47:14.649Z,23.1
2018-06-17T09:48:17.140Z,23.1
2018-06-17T09:49:17.058Z,23.1
2018-06-17T09:50:16.943Z,23
2018-06-17T09:51:16.823Z,22.8
2018-06-17T09:52:16.716Z,22.8
2018-06-17T09:53:17.019Z,22.8
2018-06-17T09:54:17.112Z,22.8
2018-06-17T09:55:16.991Z,22.9
2018-06-17T09:56:16.865Z,22.9
2018-06-17T09:57:17.149Z,22.9
2018-06-17T09:58:17.031Z,23
2018-06-17T09:59:16.899Z,22.7
2018-06-17T10:00:17.470Z,22.7
2018-06-17T10:01:17.353Z,22.6
2018-06-17T10:02:17.238Z,22.7
2018-06-17T10:03:17.537Z,22.7
2018-06-17T10:04:17.472Z,22.7
2018-06-17T10:05:17.375Z,22.6
2018-06-17T10:06:17.279Z,22.5
2018-06-17T10:07:17.140Z,22.6
2018-06-17T10:08:17.031Z,22.5
2018-06-17T10:09:17.552Z,22.5
2018-06-17T10:10:17.474Z,22.3
2018-06-17T10:11:17.508Z,22.3
2018-06-17T10:12:18.055Z,22.4
2018-06-17T10:13:19.710Z,22.5
2018-06-17T10:14:19.790Z,22.5
2018-06-17T10:15:20.676Z,22.4
2018-06-17T10:16:20.542Z,22.5
2018-06-17T10:17:20.649Z,22.5
2018-06-17T10:18:20.542Z,22.4
2018-06-17T10:19:20.440Z,22.4
2018-06-17T10:20:21.009Z,22.3
2018-06-17T10:21:20.911Z,22.4
2018-06-17T10:22:20.828Z,22.4
2018-06-17T10:23:21.202Z,22.5
2018-06-17T10:24:21.401Z,22.6
2018-06-17T10:25:21.298Z,22.7
2018-06-17T10:26:21.190Z,23
2018-06-17T10:27:21.061Z,23.1
2018-06-17T10:28:21.006Z,23.2
2018-06-17T10:29:21.273Z,23.2
2018-06-17T10:30:21.801Z,23.3
2018-06-17T10:31:21.913Z,23.3
2018-06-17T10:32:21.834Z,23.3
2018-06-17T10:33:22.158Z,23.3
2018-06-17T10:34:22.057Z,23.3
2018-06-17T10:35:21.940Z,23.1
2018-06-17T10:36:21.846Z,23.1
2018-06-17T10:37:21.944Z,23.2
2018-06-17T10:38:22.075Z,23.2
2018-06-17T10:39:21.940Z,23.3
2018-06-17T10:40:21.817Z,23.4
2018-06-17T10:41:21.718Z,23.4
2018-06-17T10:42:21.630Z,23.2
2018-06-17T10:43:21.941Z,23.3
2018-06-17T10:44:21.971Z,23.1
2018-06-17T10:45:22.438Z,23
2018-06-17T10:46:22.434Z,23.1
2018-06-17T10:47:22.341Z,23.1
2018-06-17T10:48:24.957Z,23.2
2018-06-17T10:49:24.873Z,23.3
2018-06-17T10:50:25.006Z,23.3
2018-06-17T10:51:25.464Z,23.2
2018-06-17T10:52:25.352Z,23.1
2018-06-17T10:53:29.694Z,23
2018-06-17T10:54:30.030Z,23.1
2018-06-17T10:55:29.897Z,23.1
2018-06-17T10:56:29.811Z,22.9
2018-06-17T10:57:29.682Z,22.7
2018-06-17T10:58:30.555Z,22.8
2018-06-17T10:59:33.430Z,22.8
2018-06-17T11:00:33.325Z,22.5
2018-06-17T11:01:33.242Z,22.6
2018-06-17T11:02:33.123Z,22.6
2018-06-17T11:03:36.071Z,22.7
2018-06-17T11:04:35.946Z,22.8
2018-06-17T11:05:45.339Z,22.9
2018-06-17T11:06:45.733Z,22.8
2018-06-17T11:07:45.621Z,22.6
2018-06-17T11:08:45.508Z,22.5
2018-06-17T11:09:45.624Z,22.4
2018-06-17T11:10:45.502Z,22
2018-06-17T11:11:45.398Z,21.9
2018-06-17T11:12:45.277Z,22
2018-06-17T11:13:45.830Z,22.2
2018-06-17T11:14:45.722Z,22.3
2018-06-17T11:15:49.190Z,22.2
2018-06-17T11:16:49.092Z,22.1
2018-06-17T11:17:48.987Z,22.1
2018-06-17T11:18:49.086Z,22.2
2018-06-17T11:19:48.962Z,22.1
2018-06-17T11:20:48.857Z,22.1
2018-06-17T11:21:48.991Z,22.1
2018-06-17T11:22:48.870Z,22.2
2018-06-17T11:23:49.436Z,22.4
2018-06-17T11:24:49.347Z,22.3
2018-06-17T11:25:49.247Z,22.4
2018-06-17T11:26:49.128Z,22.5
2018-06-17T11:27:49.688Z,22.5
2018-06-17T11:28:49.582Z,22.5
2018-06-17T11:29:49.495Z,22.6
2018-06-17T11:30:49.625Z,22.7
2018-06-17T11:31:49.506Z,22.8
2018-06-17T11:32:49.377Z,22.8
2018-06-17T11:33:49.702Z,22.9
2018-06-17T11:34:49.596Z,23
2018-06-17T11:35:49.473Z,23
2018-06-17T11:36:49.365Z,22.8
2018-06-17T11:37:49.306Z,22.8
2018-06-17T11:38:49.354Z,22.8
2018-06-17T11:39:50.162Z,22.5
2018-06-17T11:40:50.030Z,22.5
2018-06-17T11:41:49.922Z,22.5
2018-06-17T11:42:50.030Z,22.4
2018-06-17T11:43:50.330Z,22.3
2018-06-17T11:44:50.444Z,22.4
2018-06-17T11:45:50.343Z,22.3
2018-06-17T11:46:50.237Z,22.2
2018-06-17T11:47:50.113Z,22.3
2018-06-17T11:48:50.011Z,22.3
2018-06-17T11:49:49.929Z,22.4
2018-06-17T11:50:50.094Z,22.4
2018-06-17T11:51:50.042Z,22.4
2018-06-17T11:52:49.994Z,22.3
2018-06-17T11:53:50.537Z,22.2
2018-06-17T11:54:50.434Z,22.1
2018-06-17T11:55:59.100Z,22.2
2018-06-17T11:56:58.983Z,22.2
2018-06-17T11:57:58.853Z,22.3
2018-06-17T11:59:01.326Z,22.4
2018-06-17T12:00:01.216Z,22.4
2018-06-17T12:01:01.112Z,22.3
2018-06-17T12:02:03.912Z,22.4
2018-06-17T12:03:03.822Z,22.4
2018-06-17T12:04:04.146Z,22.5
2018-06-17T12:05:06.720Z,22.3
2018-06-17T12:06:06.612Z,22.2
2018-06-17T12:07:06.497Z,22.3
2018-06-17T12:08:07.040Z,22.3
2018-06-17T12:09:06.908Z,22.3
2018-06-17T12:10:06.795Z,22.3
2018-06-17T12:11:06.905Z,22.4
2018-06-17T12:12:06.785Z,22.3
2018-06-17T12:13:06.669Z,22.4
2018-06-17T12:14:07.997Z,22.4
2018-06-17T12:15:07.880Z,22.4
2018-06-17T12:16:07.778Z,22.5
2018-06-17T12:17:10.341Z,22.5
2018-06-17T12:18:10.224Z,22.4
2018-06-17T12:19:10.124Z,22.4
2018-06-17T12:20:10.032Z,22.3
2018-06-17T12:21:12.938Z,22.3
2018-06-17T12:22:12.841Z,22.4
2018-06-17T12:23:12.728Z,22.3
2018-06-17T12:24:13.084Z,22.3
2018-06-17T12:25:13.023Z,22.3
2018-06-17T12:26:13.123Z,22.3
2018-06-17T12:27:13.017Z,22.3
2018-06-17T12:28:12.901Z,22.3
2018-06-17T12:29:12.842Z,22.3
2018-06-17T12:30:12.749Z,22.3
2018-06-17T12:31:12.699Z,22.3
2018-06-17T12:32:12.598Z,22.3
2018-06-17T12:33:12.769Z,22.3
2018-06-17T12:34:13.096Z,22.3
2018-06-17T12:35:13.092Z,22.2
2018-06-17T12:36:12.976Z,22.2
2018-06-17T12:37:12.863Z,22.2
2018-06-17T12:38:12.759Z,22.1
2018-06-17T12:39:12.630Z,22.1
2018-06-17T12:40:12.569Z,22.1
2018-06-17T12:41:12.486Z,22.1
2018-06-17T12:42:12.379Z,22.1
2018-06-17T12:43:12.286Z,22.2
2018-06-17T12:44:12.588Z,22.1
2018-06-17T12:45:12.476Z,22.1
2018-06-17T12:46:12.386Z,22.1
2018-06-17T12:47:12.268Z,22.1
2018-06-17T12:48:12.146Z,22.1
2018-06-17T12:49:12.055Z,22
2018-06-17T12:50:11.934Z,22
2018-06-17T12:51:11.823Z,21.9
2018-06-17T12:52:11.726Z,21.9
2018-06-17T12:53:11.852Z,21.8
2018-06-17T12:54:12.153Z,21.8
2018-06-17T12:55:12.053Z,21.8
2018-06-17T12:56:11.940Z,21.9
2018-06-17T12:57:11.827Z,21.9
2018-06-17T12:58:11.708Z,21.9
2018-06-17T12:59:11.843Z,21.9
2018-06-17T13:00:11.715Z,21.9
2018-06-17T13:01:11.587Z,22
2018-06-17T13:02:12.162Z,22
2018-06-17T13:03:12.035Z,21.9
2018-06-17T13:04:12.330Z,21.9
2018-06-17T13:05:12.230Z,21.9
2018-06-17T13:06:12.120Z,22
2018-06-17T13:07:12.015Z,22
2018-06-17T13:08:12.147Z,22.1
2018-06-17T13:09:12.027Z,22.1
2018-06-17T13:10:11.905Z,22.1
2018-06-17T13:11:11.863Z,22.1
2018-06-17T13:12:11.740Z,22.1
2018-06-17T13:13:12.707Z,22.2
2018-06-17T13:14:13.017Z,22.2
2018-06-17T13:15:12.906Z,22.1
2018-06-17T13:16:12.819Z,22.1
2018-06-17T13:17:12.702Z,22
2018-06-17T13:18:12.640Z,22
2018-06-17T13:19:13.893Z,22
2018-06-17T13:20:13.927Z,22
2018-06-17T13:21:13.816Z,22
2018-06-17T13:22:17.699Z,22.1
2018-06-17T13:23:17.600Z,22.1
2018-06-17T13:24:26.676Z,22.2
2018-06-17T13:25:26.546Z,22.2
2018-06-17T13:26:26.414Z,22.2
2018-06-17T13:27:26.497Z,22.2
2018-06-17T13:28:26.715Z,22
2018-06-17T13:29:26.597Z,22
2018-06-17T13:30:26.469Z,22.1
2018-06-17T13:31:29.826Z,22.1